ADDS METAR Data INFO
IDs: Format: Raw Decoded Include TAF

Data at: 1918 UTC 16 Aug 2017

KCFD 161855Z AUTO 22010G15KT 180V240 10SM SCT050 36/21 A2996 RMK AO2 T03570211
KCFD 161835Z AUTO 20008G16KT 10SM SCT050 35/22 A2996 RMK AO2 T03500215
KCFD 161815Z AUTO 20011G19KT 10SM SCT050 35/21 A2997 RMK AO2 T03470210
KCFD 161755Z AUTO 19007G16KT 10SM SCT047 SCT055 35/22 A2998 RMK AO2 T03470218 10347 20246
KCFD 161735Z AUTO 17010G19KT 10SM SCT047 34/22 A2998 RMK AO2 T03410219
KCFD 161715Z AUTO 20011KT 10SM BKN043 BKN050 33/22 A2999 RMK AO2 T03330220
KCFD 161655Z AUTO 21009KT 10SM BKN041 BKN046 OVC055 33/22 A3000 RMK AO2 T03270222
KCFD 161635Z AUTO 22010G16KT 10SM BKN037 OVC044 33/23 A3000 RMK AO2 T03280226
KCFD 161615Z AUTO 22010G14KT 10SM BKN035 BKN041 32/23 A3000 RMK AO2 T03160226
KCFD 161555Z AUTO 19011G18KT 10SM SCT036 BKN042 32/23 A3000 RMK AO2 T03210225
KCFD 161535Z AUTO 17010G18KT 10SM SCT038 32/23 A3000 RMK AO2 T03150226
KCFD 161515Z AUTO 19013G18KT 10SM SCT021 SCT027 SCT037 30/23 A3000 RMK AO2 T02970230
KCFD 161455Z AUTO 20011G14KT 10SM BKN019 BKN025 BKN031 29/24 A2999 RMK AO2 T02900237
KCFD 161435Z AUTO 20011G15KT 10SM BKN017 BKN023 OVC032 30/25 A2999 RMK AO2 T03000245
KCFD 161415Z AUTO 19012G17KT 10SM BKN017 28/25 A2999 RMK AO2 LTG DSNT SE T02840250
KCFD 161355Z AUTO 20008G16KT 10SM BKN015 BKN028 29/25 A2999 RMK AO2 T02850254
KCFD 161335Z AUTO 18010KT 10SM BKN011 BKN028 28/26 A2999 RMK AO2 T02800258
KCFD 161315Z AUTO 18005KT 10SM SCT011 27/26 A2998 RMK AO2 T02710262
KCFD 161250Z AUTO 16006KT 10SM SCT011 26/26 A2997 RMK AO2 T02600260
KCFD 161235Z AUTO 16004KT 10SM SCT011 25/25 A2997 RMK AO2 T02530253
KCFD 161215Z AUTO 13004KT 10SM BKN009 25/25 A2996 RMK AO2 T02460246
KCFD 161155Z AUTO 14003KT 10SM BKN009 25/25 A2996 RMK AO2 T02500250 10272 20250
KCFD 161135Z AUTO 16005KT 10SM SCT009 SCT013 25/25 A2995 RMK AO2 T02520252
KCFD 161115Z AUTO 14006KT 10SM SCT011 25/25 A2994 RMK AO2 T02530253
KCFD 161055Z AUTO 17006KT 10SM BKN011 26/26 A2994 RMK AO2 T02550255
KCFD 161035Z AUTO 16006KT 10SM BKN011 26/26 A2993 RMK AO2 T02550255
KCFD 161015Z AUTO 16003KT 10SM SCT013 26/26 A2993 RMK AO2 T02550255
KCFD 160955Z AUTO 17006KT 10SM CLR 26/26 A2992 RMK AO2 T02560256
KCFD 160935Z AUTO 16007KT 10SM CLR 26/26 A2992 RMK AO2 T02570257
KCFD 160915Z AUTO 17007KT 10SM SCT012 SCT025 26/26 A2993 RMK AO2 T02600260
KCFD 160855Z AUTO 17007KT 10SM SCT012 26/26 A2993 RMK AO2 T02610261
KCFD 160835Z AUTO 18008KT 10SM SCT012 26/26 A2993 RMK AO2 T02610261
KCFD 160815Z AUTO 18008KT 10SM SCT014 26/26 A2993 RMK AO2 T02610261
KCFD 160755Z AUTO 17007KT 10SM SCT014 26/26 A2993 RMK AO2 T02620258
KCFD 160735Z AUTO 17009G14KT 10SM SCT014 27/25 A2993 RMK AO2 T02650253
KCFD 160715Z AUTO 18010KT 10SM SCT014 27/25 A2993 RMK AO2 T02650250
KCFD 160655Z AUTO 17010G14KT 10SM CLR 27/25 A2992 RMK AO2 T02660246
KCFD 160635Z AUTO 17010G15KT 10SM CLR 27/24 A2991 RMK AO2 T02660243
KCFD 160615Z AUTO 17009KT 10SM CLR 27/24 A2992 RMK AO2 T02700241
KCFD 160555Z AUTO 17010KT 10SM CLR 27/24 A2992 RMK AO2 T02720238 10340 20272 403670248
KCFD 160535Z AUTO 17011KT 10SM CLR 27/24 A2992 RMK AO2 T02730237
KCFD 160515Z AUTO 17010G17KT 10SM CLR 28/24 A2992 RMK AO2 T02770236
KCFD 160455Z AUTO 17011G15KT 10SM CLR 28/24 A2993 RMK AO2 T02790235
KCFD 160435Z AUTO 17009G17KT 10SM CLR 28/24 A2992 RMK AO2 T02810235
KCFD 160415Z AUTO 17010KT 10SM CLR 29/23 A2992 RMK AO2 T02850234
KCFD 160355Z AUTO 17011G17KT 10SM CLR 29/23 A2992 RMK AO2 T02880232
KCFD 160335Z AUTO 17013G21KT 10SM CLR 29/23 A2991 RMK AO2 T02910230
KCFD 160315Z AUTO 16009G15KT 10SM CLR 30/23 A2990 RMK AO2 T02950228
KCFD 160255Z AUTO 17013G17KT 10SM CLR 30/23 A2989 RMK AO2 T02980225
KCFD 160235Z AUTO 16012G22KT 10SM CLR 30/22 A2987 RMK AO2 T03030222
KCFD 160215Z AUTO 16012G17KT 10SM CLR 31/22 A2986 RMK AO2 T03070219
KCFD 160155Z AUTO 15010G42KT 10SM CLR 31/21 A2986 RMK AO2 T03110213
KCFD 160135Z AUTO 16010G17KT 10SM CLR 32/21 A2985 RMK AO2 T03150212
KCFD 160115Z AUTO 17012G18KT 10SM CLR 32/22 A2985 RMK AO2 T03180215
KCFD 160055Z AUTO 16012G19KT 10SM CLR 32/22 A2984 RMK AO2 T03210218
KCFD 160035Z AUTO 15013G17KT 10SM CLR 33/22 A2983 RMK AO2 T03280219
KCFD 160015Z AUTO 14014G22KT 10SM SCT060 34/22 A2982 RMK AO2 T03350220
KCFD 152355Z AUTO 14015G18KT 10SM SCT060 SCT070 34/21 A2982 RMK AO2 T03370214 10367 20337
KCFD 152335Z AUTO 16012G17KT 10SM SCT060 35/21 A2982 RMK AO2 T03500211
KCFD 152315Z AUTO 14014G18KT 10SM SCT070 35/21 A2982 RMK AO2 T03540208
KCFD 152255Z AUTO 15007G14KT 10SM SCT070 36/21 A2982 RMK AO2 T03570209
KCFD 152235Z AUTO 14012G15KT 10SM SCT070 36/21 A2982 RMK AO2 T03580205
KCFD 152215Z AUTO 14011G15KT 130V210 10SM SCT070 36/20 A2982 RMK AO2 T03620201
KCFD 152155Z AUTO 16009G16KT 10SM SCT070 36/20 A2982 RMK AO2 T03630201
KCFD 152135Z AUTO 18004G16KT 10SM SCT070 36/20 A2982 RMK AO2 T03600200
KCFD 152115Z AUTO 18010G16KT 10SM SCT065 36/20 A2983 RMK AO2 T03630201
KCFD 152055Z AUTO 21008KT 10SM CLR 36/20 A2984 RMK AO2 LTG DSNT E T03640196
KCFD 152035Z AUTO 17012G16KT 10SM CLR 36/20 A2985 RMK AO2 T03620198
KCFD 152015Z AUTO 19009G14KT 10SM CLR 36/20 A2985 RMK AO2 T03620198
KCFD 151955Z AUTO 16011G15KT 10SM CLR 36/20 A2986 RMK AO2 LTG DSNT E T03610198
KCFD 151935Z AUTO 19009G22KT 10SM CLR 36/20 A2987 RMK AO2 T03560195
KCFD 151915Z AUTO 19010KT 10SM CLR 35/20 A2988 RMK AO2 T03510203
KCFD 151855Z AUTO 19010G15KT 160V220 10SM CLR 35/21 A2989 RMK AO2 T03490210
KCFD 151835Z AUTO 17014G17KT 10SM SCT050 35/21 A2989 RMK AO2 T03460213
KCFD 151815Z AUTO 19006G17KT 10SM SCT050 34/21 A2990 RMK AO2 T03410210
KCFD 151755Z AUTO 18008KT 10SM CLR 34/22 A2991 RMK AO2 T03380215 10339 20250
KCFD 151735Z AUTO 19010KT 10SM CLR 33/22 A2992 RMK AO2 T03310215
KCFD 151715Z AUTO 19011G16KT 10SM CLR 32/22 A2992 RMK AO2 T03230217
KCFD 151655Z AUTO 20009G18KT 10SM CLR 33/22 A2993 RMK AO2 T03260215
KCFD 151635Z AUTO 20011G21KT 10SM SCT035 32/21 A2993 RMK AO2 T03200212
KCFD 151615Z AUTO 20009G17KT 10SM SCT031 32/22 A2994 RMK AO2 T03150222
KCFD 151555Z AUTO 19008KT 10SM BKN027 31/23 A2994 RMK AO2 T03130228
KCFD 151535Z AUTO 20011G15KT 10SM BKN027 31/22 A2994 RMK AO2 T03080224
KCFD 151515Z AUTO 20010G17KT 10SM SCT027 30/23 A2993 RMK AO2 T03010227
KCFD 151455Z AUTO 19012G19KT 10SM BKN024 29/23 A2993 RMK AO2 T02930230
KCFD 151435Z AUTO 20008G14KT 10SM BKN019 BKN023 28/23 A2992 RMK AO2 T02780232
KCFD 151415Z AUTO 21008KT 10SM BKN017 OVC023 28/24 A2993 RMK AO2 T02770236
KCFD 151355Z AUTO 21009G17KT 10SM OVC015 28/24 A2992 RMK AO2 T02770241
KCFD 151335Z AUTO 20007KT 10SM BKN013 BKN020 BKN025 27/25 A2992 RMK AO2 T02710250
KCFD 151315Z AUTO 20008KT 10SM SCT019 26/26 A2992 RMK AO2 T02640255
KCFD 151255Z AUTO 20005KT 10SM SCT015 26/26 A2991 RMK AO2 T02560256
KCFD 151235Z AUTO 17006KT 10SM BKN013 25/25 A2990 RMK AO2 T02520252
KCFD 151215Z AUTO 19007KT 10SM OVC011 25/25 A2991 RMK AO2 T02500250
KCFD 151155Z AUTO 18004KT 10SM OVC013 25/25 A2990 RMK AO2 T02500250 10270 20248
KCFD 151135Z AUTO 19003KT 10SM OVC013 25/25 A2990 RMK AO2 T02480248
KCFD 151115Z AUTO 20003KT 10SM BKN013 OVC018 25/25 A2989 RMK AO2 T02480248
KCFD 151055Z AUTO 19005KT 10SM OVC017 25/25 A2989 RMK AO2 T02500250
KCFD 151035Z AUTO 19004KT 10SM SCT012 BKN017 25/25 A2988 RMK AO2 T02500250
KCFD 151015Z AUTO 20004KT 10SM SCT012 BKN017 25/25 A2988 RMK AO2 T02510251
KCFD 150955Z AUTO 19004KT 10SM SCT012 BKN017 26/26 A2987 RMK AO2 T02550255
KCFD 150935Z AUTO 18006KT 10SM SCT015 25/25 A2987 RMK AO2 T02530253
KCFD 150915Z AUTO 18004KT 10SM SCT013 26/25 A2987 RMK AO2 T02550252
KCFD 150855Z AUTO 17005KT 10SM CLR 26/25 A2987 RMK AO2 T02570250
KCFD 150835Z AUTO 17007G14KT 10SM CLR 26/25 A2987 RMK AO2 T02570248
KCFD 150815Z AUTO 17007KT 10SM CLR 26/25 A2986 RMK AO2 T02580245
KCFD 150755Z AUTO 18008KT 10SM CLR 26/24 A2987 RMK AO2 T02600243
KCFD 150735Z AUTO 18009KT 10SM BKN019 26/24 A2987 RMK AO2 T02610241